createdAt,value
2023-05-09T00:02:06.357Z,99204.13
2023-05-09T00:04:34.177Z,99198.97
2023-05-09T00:07:02.651Z,99209.31
2023-05-09T00:09:29.598Z,99204.84
2023-05-09T00:11:56.561Z,99201.50
2023-05-09T00:14:24.894Z,99203.13
2023-05-09T00:16:52.851Z,99208.88
2023-05-09T00:19:20.243Z,99207.94
2023-05-09T00:21:47.328Z,99215.06
2023-05-09T00:24:15.767Z,99221.81
2023-05-09T00:26:42.788Z,99222.63
2023-05-09T00:29:10.009Z,99222.44
2023-05-09T00:31:37.116Z,99223.03
2023-05-09T00:34:04.113Z,99221.06
2023-05-09T00:36:32.395Z,99219.69
2023-05-09T00:38:59.320Z,99221.25
2023-05-09T00:41:27.822Z,99217.91
2023-05-09T00:43:54.971Z,99220.69
2023-05-09T00:46:22.611Z,99230.19
2023-05-09T00:48:49.913Z,99222.84
2023-05-09T00:51:17.569Z,99225.06
2023-05-09T00:53:44.792Z,99229.81
2023-05-09T00:56:12.687Z,99232.16
2023-05-09T00:58:41.252Z,99234.13
2023-05-09T01:01:08.463Z,99231.75
2023-05-09T01:03:36.533Z,99241.66
2023-05-09T01:06:09.728Z,99243.25
2023-05-09T01:08:45.443Z,99251.50
2023-05-09T01:11:21.288Z,99242.81
2023-05-09T01:14:06.203Z,99251.09
2023-05-09T01:16:39.427Z,99249.50
2023-05-09T01:19:27.436Z,99248.72
2023-05-09T01:21:57.160Z,99253.47
2023-05-09T01:24:52.756Z,99249.91
2023-05-09T01:27:23.431Z,99245.56
2023-05-09T01:29:57.828Z,99246.38
2023-05-09T01:32:27.435Z,99251.13
2023-05-09T01:34:56.785Z,99252.91
2023-05-09T01:37:30.485Z,99259.25
2023-05-09T01:40:00.429Z,99250.94
2023-05-09T01:42:31.180Z,99258.06
2023-05-09T01:45:00.164Z,99260.25
2023-05-09T01:47:27.986Z,99248.00
2023-05-09T01:49:56.408Z,99251.56
2023-05-09T01:52:25.646Z,99252.53
2023-05-09T01:54:53.804Z,99254.72
2023-05-09T01:57:21.908Z,99249.97
2023-05-09T01:59:49.398Z,99249.97
2023-05-09T02:02:18.350Z,99248.78
2023-05-09T02:04:46.516Z,99255.91
2023-05-09T02:07:14.116Z,99255.91
2023-05-09T02:09:41.385Z,99259.63
2023-05-09T02:12:08.396Z,99258.66
2023-05-09T02:14:35.731Z,99259.44
2023-05-09T02:17:07.045Z,99263.38
2023-05-09T02:19:36.158Z,99262.56
2023-05-09T02:22:05.003Z,99268.50
2023-05-09T02:24:33.908Z,99262.16
2023-05-09T02:27:02.760Z,99263.31
2023-05-09T02:29:43.697Z,99261.31
2023-05-09T02:32:15.473Z,99265.66
2023-05-09T02:34:46.441Z,99269.84
2023-05-09T02:37:13.959Z,99268.22
2023-05-09T02:39:41.184Z,99260.94
2023-05-09T02:42:09.664Z,99262.13
2023-05-09T02:44:37.249Z,99269.22
2023-05-09T02:47:05.213Z,99273.97
2023-05-09T02:49:32.831Z,99274.78
2023-05-09T02:52:02.945Z,99277.97
2023-05-09T02:54:30.172Z,99278.00
2023-05-09T02:56:57.198Z,99272.09
2023-05-09T02:59:27.524Z,99274.88
2023-05-09T03:01:55.802Z,99277.66
2023-05-09T03:04:23.077Z,99286.34
2023-05-09T03:06:50.571Z,99285.59
2023-05-09T03:09:19.001Z,99288.34
2023-05-09T03:11:46.123Z,99287.56
2023-05-09T03:14:14.894Z,99288.97
2023-05-09T03:16:42.236Z,99298.84
2023-05-09T03:19:19.465Z,99300.63
2023-05-09T03:21:46.377Z,99311.16
2023-05-09T03:24:13.674Z,99307.56
2023-05-09T03:26:41.992Z,99313.09
2023-05-09T03:29:09.514Z,99314.50
2023-05-09T03:31:38.392Z,99317.47
2023-05-09T03:34:05.474Z,99318.25
2023-05-09T03:36:33.114Z,99323.19
2023-05-09T03:39:01.198Z,99326.38
2023-05-09T03:41:28.507Z,99325.19
2023-05-09T03:43:57.993Z,99335.09
2023-05-09T03:46:25.199Z,99330.38
2023-05-09T03:48:52.651Z,99338.47
2023-05-09T03:51:20.697Z,99341.25
2023-05-09T03:53:48.989Z,99335.50
2023-05-09T03:56:16.766Z,99340.44
2023-05-09T03:58:49.908Z,99336.47
2023-05-09T04:01:18.419Z,99336.69
2023-05-09T04:03:46.432Z,99344.19
2023-05-09T04:06:15.222Z,99344.59
2023-05-09T04:08:44.352Z,99347.75
2023-05-09T04:11:11.411Z,99349.94
2023-05-09T04:13:41.644Z,99355.66
2023-05-09T04:16:23.093Z,99355.41
2023-05-09T04:18:50.135Z,99352.84
2023-05-09T04:21:17.165Z,99357.59
2023-05-09T04:23:47.558Z,99365.69
2023-05-09T04:26:18.032Z,99357.75
2023-05-09T04:28:48.028Z,99365.84
2023-05-09T04:31:16.626Z,99360.69
2023-05-09T04:33:48.812Z,99366.44
2023-05-09T04:36:15.843Z,99355.13
2023-05-09T04:38:42.882Z,99363.25
2023-05-09T04:41:14.092Z,99367.78
2023-05-09T04:43:41.604Z,99365.19
2023-05-09T04:46:08.693Z,99363.63
2023-05-09T04:48:37.685Z,99367.56
2023-05-09T04:51:06.171Z,99369.72
2023-05-09T04:53:34.398Z,99372.91
2023-05-09T04:56:01.573Z,99373.31
2023-05-09T04:58:29.373Z,99373.72
2023-05-09T05:00:59.828Z,99373.16
2023-05-09T05:03:27.252Z,99371.78
2023-05-09T05:05:57.565Z,99380.06
2023-05-09T05:08:26.137Z,99373.94
2023-05-09T05:10:53.719Z,99367.84
2023-05-09T05:13:21.625Z,99374.75
2023-05-09T05:15:52.787Z,99378.88
2023-05-09T05:18:21.137Z,99380.88
2023-05-09T05:20:48.498Z,99371.38
2023-05-09T05:23:15.654Z,99369.41
2023-05-09T05:25:44.257Z,99370.59
2023-05-09T05:28:12.830Z,99368.66
2023-05-09T05:30:40.841Z,99369.84
2023-05-09T05:33:08.389Z,99374.59
2023-05-09T05:35:35.624Z,99373.22
2023-05-09T05:38:03.269Z,99382.91
2023-05-09T05:40:30.166Z,99385.28
2023-05-09T05:43:02.079Z,99384.09
2023-05-09T05:45:33.996Z,99383.88
2023-05-09T05:48:04.072Z,99388.59
2023-05-09T05:50:32.160Z,99390.22
2023-05-09T05:52:59.817Z,99383.28
2023-05-09T05:55:27.094Z,99390.59
2023-05-09T05:57:54.268Z,99390.41
2023-05-09T06:00:23.046Z,99388.47
2023-05-09T06:02:56.850Z,99397.38
2023-05-09T06:05:29.275Z,99403.34
2023-05-09T06:07:56.246Z,99403.53
2023-05-09T06:10:23.200Z,99399.19
2023-05-09T06:12:50.188Z,99403.91
2023-05-09T06:15:18.064Z,99407.69
2023-05-09T06:17:49.816Z,99404.34
2023-05-09T06:20:16.954Z,99403.38
2023-05-09T06:22:43.971Z,99389.91
2023-05-09T06:25:11.250Z,99393.47
2023-05-09T06:27:38.458Z,99392.09
2023-05-09T06:30:24.011Z,99396.84
2023-05-09T06:32:54.613Z,99404.72
2023-05-09T06:35:22.136Z,99400.19
2023-05-09T06:37:49.385Z,99399.81
2023-05-09T06:40:17.271Z,99398.84
2023-05-09T06:42:44.822Z,99394.91
2023-05-09T06:45:12.135Z,99396.31
2023-05-09T06:47:39.260Z,99394.16
2023-05-09T06:50:09.037Z,99383.84
2023-05-09T06:52:36.045Z,99387.22
2023-05-09T06:55:03.128Z,99385.09
2023-05-09T06:57:30.323Z,99383.69
2023-05-09T06:59:57.386Z,99391.00
2023-05-09T07:02:27.508Z,99390.81
2023-05-09T07:04:54.616Z,99397.16
2023-05-09T07:07:23.089Z,99402.72
2023-05-09T07:09:52.919Z,99391.41
2023-05-09T07:12:22.376Z,99398.56
2023-05-09T07:14:49.313Z,99401.72
2023-05-09T07:17:23.426Z,99401.13
2023-05-09T07:19:51.123Z,99393.59
2023-05-09T07:22:18.080Z,99397.75
2023-05-09T07:24:46.575Z,99397.16
2023-05-09T07:27:13.581Z,99401.72
2023-05-09T07:29:40.633Z,99401.72
2023-05-09T07:32:07.947Z,99402.13
2023-05-09T07:34:36.233Z,99409.25
2023-05-09T07:37:03.284Z,99407.47
2023-05-09T07:39:30.375Z,99406.06
2023-05-09T07:41:58.675Z,99406.06
2023-05-09T07:44:25.818Z,99401.72
2023-05-09T07:46:55.403Z,99403.31
2023-05-09T07:49:22.567Z,99401.50
2023-05-09T07:51:49.486Z,99407.06
2023-05-09T07:54:16.379Z,99396.94
2023-05-09T07:56:43.586Z,99398.72
2023-05-09T07:59:12.400Z,99389.81
2023-05-09T08:01:39.428Z,99396.94
2023-05-09T08:04:06.959Z,99399.72
2023-05-09T08:06:33.912Z,99402.28
2023-05-09T08:09:01.042Z,99403.50
2023-05-09T08:11:28.381Z,99409.25
2023-05-09T08:13:55.319Z,99414.41
2023-05-09T08:16:23.667Z,99403.50
2023-05-09T08:18:50.873Z,99408.03
2023-05-09T08:21:19.199Z,99408.00
2023-05-09T08:23:48.005Z,99405.44
2023-05-09T08:26:15.008Z,99409.56
2023-05-09T08:28:41.916Z,99405.53
2023-05-09T08:31:08.959Z,99405.53
2023-05-09T08:33:37.783Z,99404.34
2023-05-09T08:36:06.727Z,99403.38
2023-05-09T08:38:33.673Z,99399.97
2023-05-09T08:41:01.211Z,99399.41
2023-05-09T08:43:28.870Z,99393.66
2023-05-09T08:45:58.906Z,99389.06
2023-05-09T08:48:27.163Z,99389.03
2023-05-09T08:50:56.185Z,99389.63
2023-05-09T08:53:23.452Z,99382.00
2023-05-09T08:55:51.339Z,99379.13
2023-05-09T08:58:19.789Z,99384.50
2023-05-09T09:00:50.586Z,99387.06
2023-05-09T09:03:20.744Z,99392.38
2023-05-09T09:05:51.807Z,99396.09
2023-05-09T09:08:21.047Z,99389.38
2023-05-09T09:10:48.386Z,99394.31
2023-05-09T09:13:17.532Z,99391.94
2023-05-09T09:15:46.446Z,99385.91
2023-05-09T09:18:22.469Z,99390.25
2023-05-09T09:20:53.323Z,99396.22
2023-05-09T09:23:26.064Z,99398.88
2023-05-09T09:26:01.846Z,99394.66
2023-05-09T09:28:29.462Z,99385.28
2023-05-09T09:30:56.777Z,99376.34
2023-05-09T09:33:25.773Z,99385.16
2023-05-09T09:35:56.339Z,99384.66
2023-05-09T09:38:26.827Z,99388.00
2023-05-09T09:40:55.815Z,99395.56
2023-05-09T09:43:28.344Z,99392.75
2023-05-09T09:45:56.011Z,99393.25
2023-05-09T09:48:26.959Z,99386.19
2023-05-09T09:50:54.932Z,99377.28
2023-05-09T09:53:21.972Z,99376.19
2023-05-09T09:55:54.000Z,99374.38
2023-05-09T09:58:27.151Z,99370.53
2023-05-09T10:01:06.420Z,99363.25
2023-05-09T10:03:37.818Z,99361.59
2023-05-09T10:06:05.576Z,99357.66
2023-05-09T10:08:32.500Z,99368.28
2023-05-09T10:11:01.757Z,99370.81
2023-05-09T10:13:28.965Z,99375.06
2023-05-09T10:15:58.262Z,99358.88
2023-05-09T10:18:34.039Z,99370.34
2023-05-09T10:21:05.144Z,99365.63
2023-05-09T10:23:36.997Z,99362.25
2023-05-09T10:26:15.064Z,99367.44
2023-05-09T10:28:46.391Z,99368.44
2023-05-09T10:31:19.278Z,99366.75
2023-05-09T10:33:48.417Z,99378.31
2023-05-09T10:36:18.041Z,99369.19
2023-05-09T10:38:46.679Z,99372.41
2023-05-09T10:41:16.583Z,99371.41
2023-05-09T10:43:45.221Z,99366.22
2023-05-09T10:46:13.221Z,99376.44
2023-05-09T10:48:41.679Z,99377.41
2023-05-09T10:51:09.586Z,99373.25
2023-05-09T10:53:44.285Z,99363.84
2023-05-09T10:56:24.748Z,99364.25
2023-05-09T10:58:51.783Z,99367.47
2023-05-09T11:01:30.830Z,99371.69
2023-05-09T11:04:00.030Z,99370.66
2023-05-09T11:06:49.414Z,99366.88
2023-05-09T11:09:33.404Z,99371.47
2023-05-09T11:12:12.593Z,99364.13
2023-05-09T11:14:42.379Z,99367.34
2023-05-09T11:17:10.568Z,99368.56
2023-05-09T11:19:55.362Z,99365.38
2023-05-09T11:22:24.674Z,99367.75
2023-05-09T11:24:54.029Z,99366.75
2023-05-09T11:27:23.668Z,99367.66
2023-05-09T11:29:52.205Z,99358.81
2023-05-09T11:32:20.921Z,99354.28
2023-05-09T11:34:48.277Z,99347.47
2023-05-09T11:37:17.977Z,99341.78
2023-05-09T11:39:58.872Z,99339.19
2023-05-09T11:42:28.233Z,99345.19
2023-05-09T11:44:56.781Z,99352.13
2023-05-09T11:47:24.403Z,99350.91
2023-05-09T11:49:51.790Z,99348.06
2023-05-09T11:52:19.683Z,99343.34
2023-05-09T11:54:47.019Z,99339.78
2023-05-09T11:57:17.442Z,99337.22
2023-05-09T11:59:46.264Z,99338.66
2023-05-09T12:02:13.628Z,99343.00
2023-05-09T12:04:40.785Z,99334.66
2023-05-09T12:07:08.217Z,99332.16
2023-05-09T12:09:38.968Z,99328.06
2023-05-09T12:12:11.588Z,99333.81
2023-05-09T12:14:39.902Z,99328.56
2023-05-09T12:17:08.804Z,99327.13
2023-05-09T12:19:36.797Z,99328.34
2023-05-09T12:22:06.756Z,99332.09
2023-05-09T12:24:36.341Z,99322.63
2023-05-09T12:27:04.873Z,99318.09
2023-05-09T12:29:32.241Z,99319.34
2023-05-09T12:32:00.232Z,99314.44
2023-05-09T12:34:29.265Z,99310.84
2023-05-09T12:36:58.480Z,99314.78
2023-05-09T12:39:26.745Z,99316.41
2023-05-09T12:42:01.579Z,99316.19
2023-05-09T12:44:29.855Z,99308.78
2023-05-09T12:46:58.306Z,99309.00
2023-05-09T12:49:25.671Z,99307.03
2023-05-09T12:51:55.605Z,99306.59
2023-05-09T12:54:24.158Z,99299.56
2023-05-09T12:56:53.878Z,99301.72
2023-05-09T12:59:25.311Z,99288.09
2023-05-09T13:01:54.627Z,99290.66
2023-05-09T13:04:24.737Z,99292.66
2023-05-09T13:06:55.633Z,99292.03
2023-05-09T13:09:23.966Z,99296.09
2023-05-09T13:11:52.158Z,99301.34
2023-05-09T13:14:20.489Z,99287.94
2023-05-09T13:16:47.766Z,99283.81
2023-05-09T13:19:14.894Z,99289.91
2023-05-09T13:21:44.506Z,99280.47
2023-05-09T13:24:12.904Z,99274.94
2023-05-09T13:26:39.986Z,99274.53
2023-05-09T13:29:06.874Z,99277.28
2023-05-09T13:31:33.949Z,99274.97
2023-05-09T13:34:00.990Z,99274.81
2023-05-09T13:36:27.947Z,99282.69
2023-05-09T13:38:54.871Z,99289.19
2023-05-09T13:41:24.035Z,99281.44
2023-05-09T13:43:51.177Z,99272.25
2023-05-09T13:46:18.284Z,99274.97
2023-05-09T13:48:45.506Z,99276.25
2023-05-09T13:51:12.546Z,99280.41
2023-05-09T13:53:39.568Z,99268.44
2023-05-09T13:56:07.638Z,99269.38
2023-05-09T13:58:36.400Z,99267.34
2023-05-09T14:01:03.535Z,99263.28
2023-05-09T14:03:31.776Z,99259.63
2023-05-09T14:05:59.698Z,99264.06
2023-05-09T14:08:27.061Z,99264.94
2023-05-09T14:10:54.850Z,99263.78
2023-05-09T14:13:22.035Z,99269.81
2023-05-09T14:15:50.669Z,99268.69
2023-05-09T14:18:20.839Z,99270.13
2023-05-09T14:20:48.398Z,99270.22
2023-05-09T14:23:15.404Z,99268.22
2023-05-09T14:25:42.936Z,99271.44
2023-05-09T14:28:10.009Z,99274.31
2023-05-09T14:30:37.073Z,99274.97
2023-05-09T14:33:05.711Z,99272.22
2023-05-09T14:35:34.198Z,99269.50
2023-05-09T14:38:01.642Z,99269.91
2023-05-09T14:40:32.176Z,99277.06
2023-05-09T14:43:01.966Z,99281.25
2023-05-09T14:45:29.575Z,99286.44
2023-05-09T14:47:56.787Z,99278.88
2023-05-09T14:50:25.809Z,99282.47
2023-05-09T14:52:52.852Z,99277.06
2023-05-09T14:55:20.147Z,99289.44
2023-05-09T14:57:47.117Z,99291.00
2023-05-09T15:00:21.355Z,99283.47
2023-05-09T15:02:49.134Z,99287.47
2023-05-09T15:05:16.836Z,99283.53
2023-05-09T15:07:45.678Z,99281.97
2023-05-09T15:10:13.393Z,99274.78
2023-05-09T15:12:40.591Z,99277.16
2023-05-09T15:15:18.184Z,99273.00
2023-05-09T15:17:46.274Z,99268.47
2023-05-09T15:20:18.266Z,99267.72
2023-05-09T15:22:48.125Z,99274.75
2023-05-09T15:25:15.300Z,99270.59
2023-05-09T15:27:42.648Z,99270.59
2023-05-09T15:30:10.588Z,99271.34
2023-05-09T15:32:39.838Z,99279.31
2023-05-09T15:35:08.320Z,99274.00
2023-05-09T15:37:35.901Z,99276.69
2023-05-09T15:40:05.252Z,99277.78
2023-05-09T15:42:32.303Z,99275.69
2023-05-09T15:44:59.325Z,99276.06
2023-05-09T15:47:26.320Z,99272.16
2023-05-09T15:49:53.485Z,99269.84
2023-05-09T15:52:20.516Z,99276.38
2023-05-09T15:54:47.455Z,99271.06
2023-05-09T15:57:16.852Z,99272.47
2023-05-09T15:59:44.009Z,99269.50
2023-05-09T16:02:12.326Z,99268.13
2023-05-09T16:04:43.952Z,99270.13
2023-05-09T16:07:11.401Z,99269.75
2023-05-09T16:09:38.384Z,99270.75
2023-05-09T16:12:05.807Z,99279.09
2023-05-09T16:14:34.563Z,99279.09
2023-05-09T16:17:04.046Z,99280.88
2023-05-09T16:19:33.203Z,99270.97
2023-05-09T16:22:01.953Z,99269.16
2023-05-09T16:24:29.072Z,99277.44
2023-05-09T16:26:56.038Z,99278.97
2023-05-09T16:29:23.190Z,99280.94
2023-05-09T16:31:51.601Z,99282.75
2023-05-09T16:34:18.659Z,99278.53
2023-05-09T16:36:46.467Z,99281.28
2023-05-09T16:39:13.581Z,99281.66
2023-05-09T16:41:40.567Z,99287.00
2023-05-09T16:44:07.510Z,99295.91
2023-05-09T16:46:34.682Z,99296.50
2023-05-09T16:49:03.083Z,99291.16
2023-05-09T16:51:30.635Z,99295.09
2023-05-09T16:53:57.672Z,99299.84
2023-05-09T16:56:24.596Z,99295.44
2023-05-09T16:58:51.880Z,99296.47
2023-05-09T17:01:18.871Z,99298.03
2023-05-09T17:03:45.949Z,99301.41
2023-05-09T17:06:14.336Z,99305.78
2023-05-09T17:08:43.098Z,99307.38
2023-05-09T17:11:10.160Z,99316.91
2023-05-09T17:13:37.135Z,99315.31
2023-05-09T17:16:04.647Z,99310.94
2023-05-09T17:18:37.588Z,99308.34
2023-05-09T17:21:05.379Z,99311.16
2023-05-09T17:23:33.749Z,99313.97
2023-05-09T17:26:00.677Z,99314.16
2023-05-09T17:28:27.742Z,99319.31
2023-05-09T17:30:54.740Z,99310.56
2023-05-09T17:33:21.862Z,99312.34
2023-05-09T17:35:50.151Z,99309.84
2023-05-09T17:38:17.752Z,99315.81
2023-05-09T17:40:46.103Z,99311.44
2023-05-09T17:43:15.865Z,99314.00
2023-05-09T17:45:42.963Z,99315.00
2023-05-09T17:48:10.018Z,99317.59
2023-05-09T17:50:39.669Z,99324.53
2023-05-09T17:53:08.802Z,99321.38
2023-05-09T17:55:35.974Z,99334.50
2023-05-09T17:58:04.696Z,99329.16
2023-05-09T18:00:32.692Z,99343.03
2023-05-09T18:03:00.955Z,99336.91
2023-05-09T18:05:28.664Z,99345.41
2023-05-09T18:07:57.352Z,99346.00
2023-05-09T18:10:24.740Z,99352.75
2023-05-09T18:12:51.707Z,99353.53
2023-05-09T18:15:20.552Z,99352.75
2023-05-09T18:17:49.291Z,99346.59
2023-05-09T18:20:16.646Z,99355.94
2023-05-09T18:22:43.782Z,99347.63
2023-05-09T18:25:11.466Z,99351.78
2023-05-09T18:27:38.458Z,99362.09
2023-05-09T18:30:06.795Z,99363.66
2023-05-09T18:32:35.365Z,99371.41
2023-05-09T18:35:04.159Z,99362.91
2023-05-09T18:37:31.224Z,99361.28
2023-05-09T18:39:58.452Z,99363.09
2023-05-09T18:42:25.431Z,99355.56
2023-05-09T18:44:52.458Z,99361.13
2023-05-09T18:47:19.492Z,99362.34
2023-05-09T18:49:47.957Z,99360.72
2023-05-09T18:52:15.472Z,99362.94
2023-05-09T18:54:42.518Z,99367.50
2023-05-09T18:57:09.943Z,99369.09
2023-05-09T18:59:36.910Z,99371.72
2023-05-09T19:02:04.004Z,99364.38
2023-05-09T19:04:31.259Z,99374.13
2023-05-09T19:06:59.805Z,99375.72
2023-05-09T19:09:27.111Z,99377.53
2023-05-09T19:11:54.101Z,99375.53
2023-05-09T19:14:21.114Z,99382.28
2023-05-09T19:16:48.240Z,99381.50
2023-05-09T19:19:15.785Z,99375.13
2023-05-09T19:21:43.057Z,99376.13
2023-05-09T19:24:11.357Z,99376.13
2023-05-09T19:26:38.761Z,99375.13
2023-05-09T19:29:08.255Z,99377.91
2023-05-09T19:31:36.500Z,99378.69
2023-05-09T19:34:03.576Z,99370.97
2023-05-09T19:36:31.087Z,99379.88
2023-05-09T19:38:58.078Z,99377.50
2023-05-09T19:41:26.389Z,99373.56
2023-05-09T19:43:53.640Z,99373.94
2023-05-09T19:46:22.281Z,99377.94
2023-05-09T19:48:49.348Z,99374.97
2023-05-09T19:51:16.318Z,99380.31
2023-05-09T19:53:43.392Z,99378.53
2023-05-09T19:56:10.360Z,99375.38
2023-05-09T19:58:38.769Z,99374.97
2023-05-09T20:01:07.125Z,99372.38
2023-05-09T20:03:36.908Z,99369.03
2023-05-09T20:06:04.590Z,99369.63
2023-05-09T20:08:31.650Z,99356.13
2023-05-09T20:11:00.126Z,99362.84
2023-05-09T20:13:27.799Z,99369.78
2023-05-09T20:16:00.236Z,99365.22
2023-05-09T20:18:27.265Z,99361.84
2023-05-09T20:20:55.076Z,99368.00
2023-05-09T20:23:21.992Z,99357.88
2023-05-09T20:25:49.013Z,99365.22
2023-05-09T20:28:20.177Z,99353.72
2023-05-09T20:30:47.772Z,99351.38
2023-05-09T20:33:16.343Z,99360.84
2023-05-09T20:35:43.923Z,99355.72
2023-05-09T20:38:11.121Z,99351.38
2023-05-09T20:40:38.514Z,99360.06
2023-05-09T20:43:05.570Z,99350.75
2023-05-09T20:45:32.811Z,99360.63
2023-05-09T20:48:01.686Z,99354.09
2023-05-09T20:50:30.140Z,99367.97
2023-05-09T20:52:57.067Z,99362.03
2023-05-09T20:55:24.086Z,99351.72
2023-05-09T20:57:51.028Z,99358.47
2023-05-09T21:00:18.316Z,99359.44
2023-05-09T21:02:45.618Z,99359.44
2023-05-09T21:05:12.589Z,99351.72
2023-05-09T21:07:41.245Z,99350.97
2023-05-09T21:10:10.424Z,99352.72
2023-05-09T21:12:37.559Z,99343.44
2023-05-09T21:15:05.528Z,99344.78
2023-05-09T21:17:32.604Z,99346.59
2023-05-09T21:19:59.678Z,99346.59
2023-05-09T21:22:26.637Z,99344.59
2023-05-09T21:24:54.992Z,99352.91
2023-05-09T21:27:21.982Z,99346.78
2023-05-09T21:29:49.868Z,99343.81
2023-05-09T21:32:17.176Z,99346.38
2023-05-09T21:34:44.301Z,99344.63
2023-05-09T21:37:11.296Z,99348.97
2023-05-09T21:39:38.224Z,99339.66
2023-05-09T21:42:06.714Z,99336.28
2023-05-09T21:44:33.767Z,99339.84
2023-05-09T21:47:00.871Z,99340.84
2023-05-09T21:49:28.837Z,99334.28
2023-05-09T21:51:56.211Z,99333.53
2023-05-09T21:54:23.328Z,99337.47
2023-05-09T21:56:50.378Z,99333.31
2023-05-09T21:59:20.822Z,99330.53
2023-05-09T22:01:47.952Z,99337.66
2023-05-09T22:04:15.442Z,99336.84
2023-05-09T22:06:42.861Z,99333.47
2023-05-09T22:09:10.087Z,99323.97
2023-05-09T22:11:37.880Z,99333.88
2023-05-09T22:14:04.971Z,99332.06
2023-05-09T22:16:33.319Z,99324.97
2023-05-09T22:19:00.258Z,99326.56
2023-05-09T22:21:27.741Z,99323.97
2023-05-09T22:23:54.743Z,99327.53
2023-05-09T22:26:22.308Z,99321.59
2023-05-09T22:28:49.858Z,99325.16
2023-05-09T22:31:17.197Z,99319.81
2023-05-09T22:33:45.554Z,99317.03
2023-05-09T22:36:14.524Z,99318.00
2023-05-09T22:38:41.590Z,99315.03
2023-05-09T22:41:09.155Z,99312.84
2023-05-09T22:43:39.147Z,99319.94
2023-05-09T22:46:07.164Z,99305.13
2023-05-09T22:48:34.280Z,99312.03
2023-05-09T22:51:02.714Z,99310.03
2023-05-09T22:53:31.036Z,99304.50
2023-05-09T22:55:58.162Z,99302.69
2023-05-09T22:58:25.244Z,99302.47
2023-05-09T23:00:52.464Z,99298.09
2023-05-09T23:03:19.686Z,99302.03
2023-05-09T23:05:46.688Z,99297.66
2023-05-09T23:08:15.135Z,99300.34
2023-05-09T23:10:42.151Z,99298.19
2023-05-09T23:13:10.416Z,99289.66
2023-05-09T23:15:37.394Z,99290.81
2023-05-09T23:18:04.924Z,99287.66
2023-05-09T23:20:31.899Z,99279.50
2023-05-09T23:22:58.885Z,99286.03
2023-05-09T23:25:27.452Z,99281.41
2023-05-09T23:27:54.972Z,99276.84
2023-05-09T23:30:21.908Z,99275.47
2023-05-09T23:32:48.895Z,99276.44
2023-05-09T23:35:16.131Z,99280.16
2023-05-09T23:37:43.188Z,99275.22
2023-05-09T23:40:11.211Z,99274.44
2023-05-09T23:42:39.507Z,99264.34
2023-05-09T23:45:07.703Z,99276.75
2023-05-09T23:47:34.675Z,99260.16
2023-05-09T23:50:01.808Z,99262.91
2023-05-09T23:52:28.945Z,99261.50
2023-05-09T23:54:55.903Z,99264.63
2023-05-09T23:57:22.975Z,99260.69
2023-05-09T23:59:51.530Z,99258.66
